Airfield :
LOGIN :

Register | Disclaimer

   EN    FR    IT 

 










Legend :    VFR   Marginal VFR   IFR   Intensive IFR   Very Intensive IFR
Visi :
Ceiling :
>= 8 km
>= 3000ft
5 to 8 km
1000 to 3000 ft
1500m to 5 km
500 to 1000 ft
800 to 1500m
200 to 500 ft
< 800m
< 200 ft
Symbols :   Thunderstorms  Fog  Heavy snow  Heavy precipitations  Wind > 20 kt
SIGMETs :     Misc.  Thunderstorms  Icing  Turbulence  Mountain Waves  Volcanic Ashes







- Airport Elevation : 1487 ft
- IATA code : MUC


EDDM - München Franz Josef Strauss

CURRENT METAR :
  • 212150Z 09004KT CAVOK 19/15 Q1011 NOSIG

EXPIRED METARs :
  • 212120Z 11008KT 040V120 CAVOK 19/15 Q1012 NOSIG
  • 212050Z 10004KT CAVOK 20/15 Q1012 NOSIG
  • 212020Z 10006KT CAVOK 21/14 Q1012 NOSIG
  • 211950Z 10004KT CAVOK 22/14 Q1012 NOSIG
  • 211920Z 09004KT CAVOK 23/13 Q1012 NOSIG

TAF TAF EDDM
Valid from the 21 at 18:00 until the 23 at 00:00 UTC


211700Z 2118/2224 12006KT 9999 FEW045
PROB30
TEMPO 2120/2122 21015G30KT TSRA BKN035CB
BECMG 2121/2123 26006KT
PROB40
TEMPO 2122/2205 22020G30KT TSRA SCT020 BKN035CB
BECMG 2217/2219 19004KT
PROB30
TEMPO 2221/2224 24015G25KT TSRA BKN040CB
No reported NOTAMs for that airfield.



MET'MAP, your aeronautical weather chart ! - Copyright ORBIFLY December 2007 - Disclaimer

ORBIFLY MET'MAP TEAM :

Programming & Development : Alexandra Zaïnal
Concept & Development : Baudouin d'Aumeries
Co-Development & Prog : Marc-Olivier Méhu
Technical & hardware support : Manuel Goepfert

Contact : metmap@orbifly.com




SOURCES & CREDITS :

   NOAA